首页
METAR-TAF:

METAR-TAF

机场 :

富國國際機場

富國島, 越南

纬度: 10-10-18N, 经度: 103-59-28E, 海拔: 11米

当前天气观测

该预报发布于29分钟前的01:30 UTC
风速9节,风向,在东转东北东转东南之间变化
温度 28°C
湿度 74%
气压 1014 hPa
能见度10公里或以上
散云层高于1500英尺

METAR: VVPQ 260130Z 08009KT 060V120 9999 SCT015 28/23 Q1014 NOSIG

时间: 08:59 (01:59 UTC)

预报

该预报发布于2小时和59分钟前的23:00 UTC
预报有效从26日的 00点(UTC)到 26日的 24点(UTC)
风速12节,风向
能见度10公里或以上
散云层高于1700英尺

TAF: VVPQ 252300Z 2600/2624 10012KT 9999 SCT017

超过4000个机场的气象观测和天气预报(METAR&TAF报告)。

可查询的气象台以黄色和红色小点在地图上表示。

将鼠标移到小点上方,可查看气象台名称。

然后点击查看天气观测和预报。

如需切换地图:点击带黑十字的绿色按钮放大地图;点击带横线的绿色按钮缩小地图;或者点击绿色箭头查看邻近地区的地图。


METAR-TAF: